Time;durP1;ratioP1;P1;durP2;ratioP2;P2;SDS_P1;SDS_P2;PMS_P1;PMS_P2;Temp;Humidity;BMP_temperature;BMP_pressure;BME280_temperature;BME280_humidity;BME280_pressure;Samples;Min_cycle;Max_cycle;Signal;HPM_P1;HPM_P2
2022/07/15 00:02:20;;;;;;;5.50;3.42;;;14.10;99.90;;;;;;5027105;28;20426;-79
2022/07/15 00:04:46;;;;;;;9.07;3.42;;;14.10;99.90;;;;;;5029039;28;20040;-79
2022/07/15 00:07:16;;;;;;;5.68;3.70;;;14.00;99.90;;;;;;5020286;28;20041;-79
2022/07/15 00:12:26;;;;;;;11.93;3.67;;;14.00;99.90;;;;;;5026229;28;20564;-76
2022/07/15 00:14:52;;;;;;;6.60;3.72;;;14.00;99.90;;;;;;5018857;28;20033;-79
2022/07/15 00:17:17;;;;;;;11.98;4.35;;;13.90;99.90;;;;;;5019318;28;20033;-77
2022/07/15 00:19:43;;;;;;;10.90;4.00;;;13.90;99.90;;;;;;5019545;28;20109;-79
2022/07/15 00:22:09;;;;;;;10.38;4.18;;;13.90;99.90;;;;;;5004729;28;20465;-76
2022/07/15 00:24:35;;;;;;;7.68;4.20;;;13.90;99.90;;;;;;4994514;28;20036;-79
2022/07/15 00:27:02;;;;;;;7.45;4.43;;;13.90;99.90;;;;;;5003064;28;20464;-78
2022/07/15 00:29:28;;;;;;;10.75;5.05;;;13.80;99.90;;;;;;5004104;28;20039;-78
2022/07/15 00:31:54;;;;;;;9.80;4.10;;;13.80;99.90;;;;;;5002379;28;20400;-79
2022/07/15 00:34:20;;;;;;;6.22;4.00;;;13.80;99.90;;;;;;5027667;28;20374;-78
2022/07/15 00:36:47;;;;;;;7.03;3.88;;;13.60;99.90;;;;;;5023768;28;20216;-78
2022/07/15 00:39:14;;;;;;;11.05;4.07;;;13.50;99.90;;;;;;5023059;28;20105;-78
2022/07/15 00:41:41;;;;;;;6.47;3.92;;;13.40;99.90;;;;;;5011439;28;20089;-78
2022/07/15 00:44:07;;;;;;;6.07;3.80;;;13.30;99.90;;;;;;5032974;28;20080;-79
2022/07/15 00:46:35;;;;;;;7.28;4.05;;;13.30;99.90;;;;;;5024100;28;20045;-77
2022/07/15 00:49:03;;;;;;;7.07;4.05;;;13.20;99.90;;;;;;5027294;28;20022;-78
2022/07/15 00:51:54;;;;;;;9.43;3.55;;;13.10;99.90;;;;;;5005796;28;20037;-79
2022/07/15 00:54:25;;;;;;;4.53;3.67;;;13.10;99.90;;;;;;5020008;28;20158;-78
2022/07/15 00:56:56;;;;;;;7.38;4.22;;;13.10;99.90;;;;;;5018572;28;20892;-78
2022/07/15 00:59:25;;;;;;;9.38;4.65;;;13.10;99.90;;;;;;5025452;28;20034;-78
2022/07/15 01:01:52;;;;;;;8.32;4.30;;;13.20;99.90;;;;;;5019644;28;20060;-78
2022/07/15 01:04:21;;;;;;;7.70;4.80;;;13.20;99.90;;;;;;4997273;28;20173;-78
2022/07/15 01:06:47;;;;;;;9.23;4.40;;;13.20;99.90;;;;;;5043759;28;20127;-78
2022/07/15 01:09:12;;;;;;;7.70;4.13;;;13.20;99.90;;;;;;5022026;28;20125;-78
2022/07/15 01:11:38;;;;;;;5.93;4.10;;;13.20;99.90;;;;;;5033993;28;20036;-79
2022/07/15 01:14:04;;;;;;;8.98;4.40;;;13.20;99.90;;;;;;5005010;28;20022;-79
2022/07/15 01:16:30;;;;;;;6.60;4.75;;;13.20;99.90;;;;;;5040354;28;20499;-78
2022/07/15 01:18:56;;;;;;;8.82;4.90;;;13.10;99.90;;;;;;5021036;28;20026;-79
2022/07/15 01:21:22;;;;;;;8.73;4.53;;;13.20;99.90;;;;;;5006894;28;20116;-78
2022/07/15 01:23:49;;;;;;;7.15;4.20;;;13.10;99.90;;;;;;4996761;28;20077;-78
2022/07/15 01:26:15;;;;;;;9.88;4.55;;;13.10;99.90;;;;;;5037144;28;20415;-78
2022/07/15 01:28:41;;;;;;;6.90;4.55;;;13.10;99.90;;;;;;5003712;28;20021;-78
2022/07/15 01:31:08;;;;;;;11.63;4.70;;;13.10;99.90;;;;;;5021164;28;20037;-78
2022/07/15 01:33:34;;;;;;;10.15;4.78;;;13.00;99.90;;;;;;4983775;28;20042;-78
2022/07/15 01:36:00;;;;;;;9.68;4.65;;;13.00;99.90;;;;;;5012853;28;20464;-79
2022/07/15 01:38:27;;;;;;;11.75;4.40;;;13.00;99.90;;;;;;5010352;28;20073;-79
2022/07/15 01:40:54;;;;;;;7.65;4.97;;;13.00;99.90;;;;;;5014971;28;20361;-79
2022/07/15 01:43:20;;;;;;;7.63;4.78;;;12.90;99.90;;;;;;5020321;28;20432;-79
2022/07/15 01:45:46;;;;;;;8.35;4.97;;;12.90;99.90;;;;;;5003168;28;20040;-78
2022/07/15 01:50:59;;;;;;;7.00;4.00;;;12.80;99.90;;;;;;5014261;28;20045;-79
2022/07/15 01:53:26;;;;;;;7.20;4.85;;;12.80;99.90;;;;;;5012523;28;20489;-78
2022/07/15 01:55:52;;;;;;;6.72;4.50;;;12.70;99.90;;;;;;5019237;28;20033;-79
2022/07/15 01:58:18;;;;;;;6.95;5.00;;;12.60;99.90;;;;;;5017067;28;20037;-78
2022/07/15 02:00:44;;;;;;;9.18;5.18;;;12.50;99.90;;;;;;5016297;28;20144;-79
2022/07/15 02:03:09;;;;;;;9.75;5.53;;;12.40;99.90;;;;;;5020476;28;20473;-79
2022/07/15 02:05:35;;;;;;;8.90;5.72;;;12.40;99.90;;;;;;5018003;28;20105;-79
2022/07/15 02:08:01;;;;;;;12.23;5.70;;;12.30;99.90;;;;;;5018680;28;20225;-78
2022/07/15 02:10:39;;;;;;;8.85;5.47;;;12.30;99.90;;;;;;5017076;28;20021;-78
2022/07/15 02:13:09;;;;;;;10.85;6.07;;;12.30;99.90;;;;;;5009985;28;20044;-79
2022/07/15 02:15:36;;;;;;;9.60;6.85;;;12.40;99.90;;;;;;5016689;28;20040;-79
2022/07/15 02:18:03;;;;;;;9.20;5.78;;;12.40;99.90;;;;;;5018739;28;20029;-79
2022/07/15 02:20:29;;;;;;;9.77;5.32;;;12.40;99.90;;;;;;5018136;28;20125;-79
2022/07/15 02:22:57;;;;;;;10.02;5.28;;;12.40;99.90;;;;;;5019455;28;20460;-79
2022/07/15 02:25:27;;;;;;;8.65;5.10;;;12.40;99.90;;;;;;5013157;28;20084;-78
2022/07/15 02:27:58;;;;;;;10.07;5.63;;;12.40;99.90;;;;;;5005262;28;20041;-79
2022/07/15 02:30:26;;;;;;;7.90;5.43;;;12.30;99.90;;;;;;5029829;28;20433;-79
2022/07/15 02:32:52;;;;;;;9.40;6.07;;;12.30;99.90;;;;;;5016546;28;20033;-78
2022/07/15 02:35:17;;;;;;;8.40;5.22;;;12.30;99.90;;;;;;4997440;28;20199;-79
2022/07/15 02:37:44;;;;;;;8.07;5.68;;;12.20;99.90;;;;;;4989648;28;20034;-79
2022/07/15 02:40:10;;;;;;;12.68;5.70;;;12.30;99.90;;;;;;4996880;28;20529;-78
2022/07/15 02:42:36;;;;;;;9.18;5.38;;;12.30;99.90;;;;;;4991401;28;20033;-79
2022/07/15 02:45:02;;;;;;;10.27;4.80;;;12.30;99.90;;;;;;4998264;28;20128;-79
2022/07/15 02:47:28;;;;;;;8.98;4.85;;;12.30;99.90;;;;;;4982920;28;20053;-79
2022/07/15 02:49:54;;;;;;;9.63;4.65;;;12.30;99.90;;;;;;4986784;28;20026;-77
2022/07/15 02:52:19;;;;;;;8.00;4.88;;;12.20;99.90;;;;;;4998067;28;20057;-77
2022/07/15 02:54:45;;;;;;;6.32;5.07;;;12.10;99.90;;;;;;4995309;28;20030;-77
2022/07/15 02:57:11;;;;;;;9.18;4.65;;;12.00;99.90;;;;;;4982173;28;20086;-77
2022/07/15 02:59:36;;;;;;;9.30;5.47;;;12.00;99.90;;;;;;4996838;28;20096;-78
2022/07/15 03:02:02;;;;;;;5.82;3.50;;;12.00;99.90;;;;;;4994854;28;20387;-77
2022/07/15 03:04:28;;;;;;;4.90;4.10;;;11.90;99.90;;;;;;4997645;28;20508;-78
2022/07/15 03:06:53;;;;;;;6.90;4.70;;;11.90;99.90;;;;;;5000263;28;20042;-77
2022/07/15 03:09:19;;;;;;;8.18;4.30;;;11.90;99.90;;;;;;4999941;28;20030;-78
2022/07/15 03:11:45;;;;;;;7.15;4.70;;;11.90;99.90;;;;;;4980540;28;20472;-77
2022/07/15 03:14:11;;;;;;;8.82;5.25;;;11.90;99.90;;;;;;4989276;28;20039;-77
2022/07/15 03:16:37;;;;;;;10.00;5.13;;;11.90;99.90;;;;;;4998796;28;20152;-77
2022/07/15 03:19:02;;;;;;;8.25;4.53;;;11.90;99.90;;;;;;4992407;28;20072;-77
2022/07/15 03:21:28;;;;;;;7.47;4.60;;;11.90;99.90;;;;;;5000685;28;20025;-77
2022/07/15 03:23:54;;;;;;;7.53;4.85;;;11.90;99.90;;;;;;4981117;28;20109;-78
2022/07/15 03:26:20;;;;;;;11.57;5.03;;;11.90;99.90;;;;;;4991393;28;20050;-77
2022/07/15 03:28:46;;;;;;;9.48;5.20;;;11.90;99.90;;;;;;4988537;28;20037;-78
2022/07/15 03:31:12;;;;;;;8.63;5.45;;;11.90;99.90;;;;;;5000403;28;20034;-77
2022/07/15 03:33:38;;;;;;;5.82;4.80;;;11.80;99.90;;;;;;5003576;28;20526;-77
2022/07/15 03:36:05;;;;;;;7.88;4.80;;;11.80;99.90;;;;;;5007896;28;20080;-77
2022/07/15 03:38:31;;;;;;;6.75;4.50;;;11.70;99.90;;;;;;5009368;28;20034;-78
2022/07/15 03:40:57;;;;;;;8.88;5.05;;;11.60;99.90;;;;;;5018722;28;20088;-77
2022/07/15 03:43:26;;;;;;;9.77;5.45;;;11.60;99.90;;;;;;5017330;28;20129;-76
2022/07/15 03:45:53;;;;;;;13.88;6.22;;;11.50;99.90;;;;;;5030216;28;20103;-77
2022/07/15 03:48:19;;;;;;;12.48;5.60;;;11.40;99.90;;;;;;5017086;28;20112;-77
2022/07/15 03:50:45;;;;;;;8.13;5.72;;;11.40;99.90;;;;;;5008135;28;20118;-77
2022/07/15 03:53:10;;;;;;;9.85;5.88;;;11.40;99.90;;;;;;5015087;28;20025;-77
2022/07/15 03:55:37;;;;;;;9.93;5.22;;;11.40;99.90;;;;;;5015816;28;20569;-77
2022/07/15 03:58:04;;;;;;;10.68;5.45;;;11.40;99.90;;;;;;5019074;28;20028;-77
2022/07/15 04:00:30;;;;;;;7.82;5.43;;;11.30;99.90;;;;;;5016487;28;20112;-77
2022/07/15 04:02:56;;;;;;;8.75;5.57;;;11.20;99.90;;;;;;5008535;28;20117;-77
2022/07/15 04:05:21;;;;;;;8.00;5.20;;;11.20;99.90;;;;;;5014804;28;20395;-77
2022/07/15 04:07:47;;;;;;;8.23;5.68;;;11.20;99.90;;;;;;5014527;28;20111;-77
2022/07/15 04:10:14;;;;;;;9.30;5.28;;;11.10;99.90;;;;;;5004544;28;20026;-78
2022/07/15 04:12:41;;;;;;;7.32;4.85;;;11.10;99.90;;;;;;5008009;28;20085;-77
2022/07/15 04:15:07;;;;;;;10.82;5.45;;;11.10;99.90;;;;;;5018841;28;20471;-77
2022/07/15 04:17:33;;;;;;;9.93;4.90;;;11.10;99.90;;;;;;5037967;28;20114;-77
2022/07/15 04:19:59;;;;;;;7.72;4.72;;;11.10;99.90;;;;;;5021712;28;20036;-77
2022/07/15 04:22:25;;;;;;;6.43;4.65;;;11.00;99.90;;;;;;5016459;28;20033;-77
2022/07/15 04:24:51;;;;;;;10.88;4.78;;;11.00;99.90;;;;;;5016601;28;20026;-77
2022/07/15 04:27:17;;;;;;;11.00;5.72;;;11.00;99.90;;;;;;5009444;28;20469;-76
2022/07/15 04:29:42;;;;;;;6.00;5.10;;;11.00;99.90;;;;;;5011594;28;20041;-77
2022/07/15 04:32:08;;;;;;;6.45;4.68;;;11.00;99.90;;;;;;5015908;28;20033;-77
2022/07/15 04:34:33;;;;;;;7.97;5.07;;;11.00;99.90;;;;;;5018411;28;20132;-77
2022/07/15 04:37:00;;;;;;;5.72;4.20;;;11.00;99.90;;;;;;5021533;28;20061;-77
2022/07/15 04:39:26;;;;;;;9.10;4.97;;;11.10;99.90;;;;;;5018526;28;20034;-77
2022/07/15 04:41:51;;;;;;;7.40;5.38;;;11.10;99.90;;;;;;5015084;28;20109;-77
2022/07/15 04:44:18;;;;;;;7.45;5.28;;;11.20;99.90;;;;;;5006114;28;20037;-77
2022/07/15 04:46:44;;;;;;;8.50;4.90;;;11.10;99.90;;;;;;5013705;28;20048;-77
2022/07/15 04:51:54;;;;;;;9.52;5.25;;;11.10;99.90;;;;;;5013506;28;20492;-77
2022/07/15 04:54:19;;;;;;;8.60;5.32;;;11.20;99.90;;;;;;5012297;28;20030;-77
2022/07/15 04:56:45;;;;;;;9.43;6.32;;;11.30;99.90;;;;;;5013773;28;20477;-78
2022/07/15 04:59:11;;;;;;;9.38;5.57;;;11.30;99.90;;;;;;5007465;28;20060;-77
2022/07/15 05:01:36;;;;;;;15.45;6.20;;;11.40;99.90;;;;;;5021406;28;20033;-77
2022/07/15 05:04:02;;;;;;;8.23;5.57;;;11.50;99.90;;;;;;5010322;28;20068;-78
2022/07/15 05:06:28;;;;;;;6.47;4.97;;;11.60;99.90;;;;;;5019426;28;20041;-77
2022/07/15 05:08:54;;;;;;;5.85;5.13;;;11.60;99.90;;;;;;5005293;28;20091;-77
2022/07/15 05:11:19;;;;;;;8.68;5.15;;;11.70;99.90;;;;;;5005811;28;20573;-77
2022/07/15 05:13:45;;;;;;;6.20;4.78;;;11.70;99.90;;;;;;5008216;28;20039;-77
2022/07/15 05:16:11;;;;;;;7.13;5.20;;;11.80;99.90;;;;;;5020057;28;20515;-77
2022/07/15 05:18:37;;;;;;;6.15;4.78;;;11.80;99.90;;;;;;5020884;28;20113;-77
2022/07/15 05:21:03;;;;;;;8.52;4.72;;;11.90;99.90;;;;;;5021413;28;20529;-78
2022/07/15 05:23:29;;;;;;;6.80;4.28;;;12.00;99.90;;;;;;5015382;28;20029;-77
2022/07/15 05:25:55;;;;;;;7.40;3.83;;;12.10;99.90;;;;;;5009975;28;20054;-77
2022/07/15 05:28:21;;;;;;;5.53;3.67;;;12.20;99.90;;;;;;5018429;28;20099;-77
2022/07/15 05:30:47;;;;;;;5.70;3.83;;;12.30;99.90;;;;;;5038731;28;20033;-78
2022/07/15 05:33:16;;;;;;;6.65;4.15;;;12.40;99.90;;;;;;5040779;28;20538;-78
2022/07/15 05:35:41;;;;;;;5.82;3.92;;;12.50;99.90;;;;;;5023326;28;20041;-77
2022/07/15 05:38:07;;;;;;;4.95;3.45;;;12.60;99.90;;;;;;5020199;28;20448;-77
2022/07/15 05:40:33;;;;;;;7.25;3.38;;;12.70;99.90;;;;;;5018862;28;20036;-77
2022/07/15 05:42:59;;;;;;;4.65;3.45;;;12.80;99.90;;;;;;5003475;28;20041;-77
2022/07/15 05:45:25;;;;;;;6.80;2.97;;;12.90;99.90;;;;;;5017003;28;20044;-78
2022/07/15 05:47:51;;;;;;;4.18;3.15;;;13.00;99.90;;;;;;5020565;28;20052;-77
2022/07/15 05:50:17;;;;;;;5.15;2.92;;;13.10;99.90;;;;;;5018295;28;20038;-78
2022/07/15 05:52:43;;;;;;;4.38;2.20;;;13.30;99.90;;;;;;5012990;28;20052;-77
2022/07/15 05:55:10;;;;;;;4.40;2.95;;;13.40;99.90;;;;;;5012640;28;20141;-78
2022/07/15 05:57:35;;;;;;;10.10;3.10;;;13.60;99.90;;;;;;5010295;28;20034;-77
2022/07/15 06:00:02;;;;;;;11.82;3.10;;;13.80;99.90;;;;;;5010347;28;20033;-78
2022/07/15 06:02:28;;;;;;;4.03;2.28;;;14.00;99.90;;;;;;5017338;28;20029;-77
2022/07/15 06:04:54;;;;;;;4.00;2.10;;;14.10;99.90;;;;;;5012229;28;20036;-77
2022/07/15 06:07:20;;;;;;;4.00;2.05;;;14.40;99.90;;;;;;5008214;28;20037;-77
2022/07/15 06:09:50;;;;;;;3.67;2.03;;;14.50;99.90;;;;;;5010483;28;20045;-78
2022/07/15 06:12:18;;;;;;;3.92;1.90;;;14.60;99.90;;;;;;5016691;28;20057;-78
2022/07/15 06:14:44;;;;;;;3.22;1.88;;;14.70;99.90;;;;;;5013579;28;20182;-78
2022/07/15 06:17:10;;;;;;;4.88;2.05;;;14.70;99.90;;;;;;5017719;28;20104;-78
2022/07/15 06:19:36;;;;;;;4.70;2.28;;;14.70;99.90;;;;;;5017990;28;20436;-78
2022/07/15 06:22:02;;;;;;;4.10;2.33;;;14.80;99.90;;;;;;5021318;28;20041;-78
2022/07/15 06:24:28;;;;;;;3.33;1.95;;;14.80;99.90;;;;;;5009772;28;20266;-78
2022/07/15 06:26:54;;;;;;;5.13;2.45;;;14.80;99.90;;;;;;5019155;28;20032;-77
2022/07/15 06:29:21;;;;;;;4.82;2.40;;;14.90;99.90;;;;;;5007430;28;20030;-77
2022/07/15 06:31:48;;;;;;;6.20;2.08;;;15.10;99.90;;;;;;5012915;28;20025;-79
2022/07/15 06:34:14;;;;;;;2.63;1.80;;;15.30;99.90;;;;;;5006659;28;20045;-79
2022/07/15 06:36:39;;;;;;;75.10;49.05;;;15.50;99.90;;;;;;5008574;28;21183;-86
2022/07/15 06:39:05;;;;;;;8.88;5.47;;;15.80;99.90;;;;;;5014164;28;20814;-90
2022/07/15 06:41:31;;;;;;;3.10;2.75;;;16.00;99.90;;;;;;5010356;28;20129;-87
2022/07/15 06:43:58;;;;;;;4.90;3.47;;;16.20;99.90;;;;;;5012828;28;20418;-86
2022/07/15 06:46:24;;;;;;;4.75;2.05;;;16.50;99.90;;;;;;5016270;28;20475;-88
2022/07/15 06:48:49;;;;;;;3.03;1.75;;;16.80;99.90;;;;;;5007870;28;20157;-82
2022/07/15 06:51:15;;;;;;;4.47;1.60;;;17.20;99.90;;;;;;5014865;28;20357;-81
2022/07/15 06:53:41;;;;;;;3.75;1.70;;;17.40;99.90;;;;;;5008121;28;20054;-78
2022/07/15 06:56:07;;;;;;;2.17;1.73;;;17.60;99.90;;;;;;5021818;28;20033;-81
2022/07/15 06:58:33;;;;;;;10.55;6.43;;;17.70;99.90;;;;;;5008093;28;20477;-78
2022/07/15 07:01:01;;;;;;;10.13;2.70;;;17.80;99.90;;;;;;5009872;28;20063;-81
2022/07/15 07:03:27;;;;;;;86.57;5.90;;;17.70;99.90;;;;;;5025060;28;20040;-81
2022/07/15 07:05:53;;;;;;;23.33;3.30;;;17.90;99.90;;;;;;5005390;28;20060;-79
2022/07/15 07:08:18;;;;;;;2.95;1.60;;;18.10;99.90;;;;;;5007945;28;20513;-79
2022/07/15 07:10:44;;;;;;;11.05;5.25;;;18.30;99.90;;;;;;5007676;28;20234;-76
2022/07/15 07:13:10;;;;;;;7.88;1.98;;;18.50;99.90;;;;;;5012467;28;20108;-85
2022/07/15 07:15:36;;;;;;;3.92;1.25;;;18.70;99.90;;;;;;5008578;28;20390;-80
2022/07/15 07:18:02;;;;;;;7.07;2.90;;;19.00;99.90;;;;;;5009282;28;20105;-79
2022/07/15 07:20:28;;;;;;;6.05;1.42;;;19.40;99.90;;;;;;4992005;28;20056;-82
2022/07/15 07:22:54;;;;;;;5.85;1.73;;;19.40;99.90;;;;;;5004199;28;20036;-80
2022/07/15 07:25:20;;;;;;;3.72;1.38;;;19.80;99.90;;;;;;5007571;28;20030;-80
2022/07/15 07:27:45;;;;;;;3.00;1.27;;;19.90;99.90;;;;;;5023307;28;20503;-80
2022/07/15 07:30:12;;;;;;;1.75;1.40;;;20.30;99.90;;;;;;5013735;28;20030;-82
2022/07/15 07:32:37;;;;;;;8.25;1.30;;;20.30;99.90;;;;;;5014352;28;20030;-83
2022/07/15 07:35:03;;;;;;;1.98;1.00;;;20.50;99.90;;;;;;5014663;28;20408;-84
2022/07/15 07:37:34;;;;;;;4.47;1.75;;;21.00;99.90;;;;;;5013771;28;20030;-82
2022/07/15 07:39:59;;;;;;;4.60;1.10;;;20.90;99.90;;;;;;5016371;28;20454;-81
2022/07/15 07:42:25;;;;;;;1.52;1.05;;;21.00;99.90;;;;;;5004830;28;20040;-80
2022/07/15 07:44:51;;;;;;;2.28;1.23;;;21.10;99.90;;;;;;5012659;28;20030;-81
2022/07/15 07:47:16;;;;;;;4.47;1.25;;;21.30;99.90;;;;;;5013591;28;20140;-79
2022/07/15 07:49:44;;;;;;;3.75;1.33;;;21.60;99.90;;;;;;5018827;28;20022;-79
2022/07/15 07:52:09;;;;;;;2.85;1.10;;;21.80;99.70;;;;;;5018260;28;21085;-80
2022/07/15 07:54:35;;;;;;;5.15;1.55;;;22.00;98.40;;;;;;5015893;28;20041;-81
2022/07/15 07:57:01;;;;;;;8.23;1.48;;;23.20;98.10;;;;;;5020541;28;20033;-83
2022/07/15 07:59:27;;;;;;;2.63;0.85;;;24.00;91.50;;;;;;5019511;28;20032;-81
2022/07/15 08:01:52;;;;;;;2.00;1.20;;;25.60;86.00;;;;;;5017552;28;20030;-80
2022/07/15 08:04:18;;;;;;;4.03;1.00;;;26.70;61.50;;;;;;5014911;28;20588;-80
2022/07/15 08:06:44;;;;;;;3.28;1.00;;;27.70;56.80;;;;;;5015543;28;20040;-79
2022/07/15 08:09:09;;;;;;;1.73;0.93;;;28.00;57.80;;;;;;5010734;28;20029;-79
2022/07/15 08:11:35;;;;;;;1.33;0.88;;;27.70;57.50;;;;;;5014755;28;20091;-79
2022/07/15 08:14:01;;;;;;;4.22;1.02;;;26.60;59.60;;;;;;5013802;28;20489;-79
2022/07/15 08:16:27;;;;;;;2.60;1.20;;;27.00;58.20;;;;;;5017231;28;20025;-80
2022/07/15 08:18:53;;;;;;;6.03;1.38;;;27.30;54.60;;;;;;5008495;28;20034;-80
2022/07/15 08:21:19;;;;;;;3.47;1.08;;;28.70;52.20;;;;;;5009094;28;20044;-79
2022/07/15 08:23:44;;;;;;;5.93;1.45;;;28.60;50.90;;;;;;5010964;28;20037;-84
2022/07/15 08:26:11;;;;;;;2.92;0.82;;;28.00;54.00;;;;;;5012876;28;20464;-80
2022/07/15 08:28:36;;;;;;;3.28;0.90;;;29.20;51.60;;;;;;5017810;28;20120;-82
2022/07/15 08:31:02;;;;;;;1.75;0.75;;;28.90;51.00;;;;;;5016432;28;20033;-82
2022/07/15 08:33:28;;;;;;;1.90;0.93;;;27.90;51.60;;;;;;5012927;28;20132;-81
2022/07/15 08:35:55;;;;;;;7.50;1.42;;;28.70;52.10;;;;;;4981224;28;20132;-78
2022/07/15 08:38:20;;;;;;;3.67;1.27;;;30.70;49.90;;;;;;4991162;28;20026;-79
2022/07/15 08:40:46;;;;;;;2.70;0.75;;;33.40;43.80;;;;;;5003781;28;20029;-83
2022/07/15 08:43:12;;;;;;;3.22;0.60;;;34.80;42.30;;;;;;4982839;28;21145;-80
2022/07/15 08:45:40;;;;;;;5.88;0.90;;;37.00;38.50;;;;;;4996396;28;20042;-81
2022/07/15 08:48:07;;;;;;;3.88;0.80;;;37.60;33.10;;;;;;4997618;28;20025;-81
2022/07/15 08:50:34;;;;;;;4.28;0.70;;;38.10;35.90;;;;;;4978097;28;20121;-84
2022/07/15 08:53:00;;;;;;;3.70;0.50;;;37.60;33.00;;;;;;4986454;28;20483;-77
2022/07/15 08:55:28;;;;;;;2.65;0.90;;;38.40;32.60;;;;;;4987671;28;20157;-78
2022/07/15 08:57:54;;;;;;;4.15;0.82;;;38.30;29.90;;;;;;4997659;28;20060;-78
2022/07/15 09:00:22;;;;;;;2.40;0.65;;;36.20;30.80;;;;;;4982456;28;20062;-78
2022/07/15 09:02:48;;;;;;;0.73;0.35;;;37.10;33.20;;;;;;4984566;28;20031;-78
2022/07/15 09:05:30;;;;;;;2.92;0.70;;;37.60;30.90;;;;;;4991331;28;20037;-78
2022/07/15 09:08:08;;;;;;;3.35;1.23;;;38.60;29.60;;;;;;4992918;28;20048;-78
2022/07/15 09:10:53;;;;;;;4.53;1.05;;;38.70;28.40;;;;;;4989120;28;20022;-79
2022/07/15 09:13:35;;;;;;;4.18;0.63;;;37.50;27.80;;;;;;4985246;28;20092;-79
2022/07/15 09:16:01;;;;;;;4.43;0.65;;;38.10;30.00;;;;;;4987868;28;20029;-78
2022/07/15 09:18:30;;;;;;;2.15;0.60;;;37.10;28.40;;;;;;4987573;28;20618;-84
2022/07/15 09:20:56;;;;;;;1.60;0.47;;;36.60;28.50;;;;;;4980616;28;20109;-78
2022/07/15 09:23:31;;;;;;;2.38;0.50;;;36.20;29.80;;;;;;4989254;28;20140;-79
2022/07/15 09:26:19;;;;;;;5.20;1.23;;;35.90;30.00;;;;;;4981438;28;20217;-78
2022/07/15 09:28:44;;;;;;;2.03;0.55;;;36.20;29.50;;;;;;4975944;28;20026;-77
2022/07/15 09:34:00;;;;;;;3.33;0.40;;;37.70;28.70;;;;;;4989463;28;20057;-80
2022/07/15 09:36:30;;;;;;;3.10;0.60;;;36.70;29.50;;;;;;4994419;28;20087;-79
2022/07/15 09:38:58;;;;;;;1.27;0.32;;;36.90;30.60;;;;;;4984855;28;20741;-78
2022/07/15 09:41:41;;;;;;;2.15;0.30;;;36.90;29.40;;;;;;4998319;28;20026;-78
2022/07/15 09:44:11;;;;;;;4.55;0.70;;;36.20;28.60;;;;;;4993248;28;20331;-78
2022/07/15 09:46:47;;;;;;;1.48;0.40;;;35.40;29.70;;;;;;4990841;28;20069;-78
2022/07/15 09:49:15;;;;;;;1.08;0.40;;;34.50;28.10;;;;;;4984287;28;20285;-78
2022/07/15 09:51:56;;;;;;;1.30;0.30;;;35.40;30.30;;;;;;4984640;28;20117;-78
2022/07/15 09:54:30;;;;;;;2.60;0.25;;;36.50;27.70;;;;;;4980578;28;20403;-78
2022/07/15 09:57:00;;;;;;;2.90;0.30;;;36.50;29.70;;;;;;4988258;28;20285;-78
2022/07/15 09:59:26;;;;;;;0.93;0.30;;;36.80;28.80;;;;;;4986319;28;20034;-78
2022/07/15 10:01:52;;;;;;;1.83;0.30;;;35.90;29.00;;;;;;4993241;28;20080;-78
2022/07/15 10:04:20;;;;;;;0.36;0.30;;;35.60;30.10;;;;;;4628629;28;10000860;-79
2022/07/15 10:06:48;;;;;;;0.43;0.28;;;35.40;28.70;;;;;;4994644;28;20033;-78
2022/07/15 10:09:14;;;;;;;0.85;0.40;;;34.80;31.20;;;;;;4961595;28;20433;-78
2022/07/15 10:11:46;;;;;;;0.90;0.30;;;35.20;31.00;;;;;;4991870;28;20651;-78
2022/07/15 10:14:30;;;;;;;1.33;0.32;;;34.40;28.80;;;;;;4977923;28;20029;-78
2022/07/15 10:17:34;;;;;;;2.60;0.30;;;35.20;31.70;;;;;;4990167;28;20592;-78
2022/07/15 10:20:06;;;;;;;1.65;0.30;;;35.00;30.00;;;;;;4979280;28;20033;-78
2022/07/15 10:22:47;;;;;;;1.40;0.55;;;35.10;27.40;;;;;;4988141;28;20475;-79
2022/07/15 10:25:19;;;;;;;1.10;0.35;;;34.90;29.80;;;;;;4975925;28;20060;-77
2022/07/15 10:28:03;;;;;;;0.75;0.35;;;35.10;29.30;;;;;;4986347;28;20101;-82
2022/07/15 10:30:29;;;;;;;1.35;0.38;;;35.60;28.10;;;;;;4976027;28;20087;-78
2022/07/15 10:33:04;;;;;;;1.10;0.50;;;35.80;30.50;;;;;;4981598;28;20510;-77
2022/07/15 10:35:34;;;;;;;1.02;0.60;;;35.20;30.70;;;;;;4997839;28;20046;-78
2022/07/15 10:38:19;;;;;;;;;;;34.30;29.40;;;;;;4993622;28;20416;-79
2022/07/15 10:41:03;;;;;;;0.50;0.30;;;34.50;27.80;;;;;;4997040;28;20220;-78
2022/07/15 10:43:43;;;;;;;1.75;0.30;;;34.20;29.90;;;;;;4998942;28;20030;-78
2022/07/15 10:46:15;;;;;;;;;;;34.70;30.10;;;;;;5016300;28;20473;-77
2022/07/15 10:48:41;;;;;;;1.00;0.30;;;35.10;27.60;;;;;;5006804;28;20073;-78
2022/07/15 10:51:07;;;;;;;1.25;0.40;;;34.30;27.30;;;;;;4983767;28;20292;-77
2022/07/15 10:53:48;;;;;;;0.40;0.22;;;34.60;28.80;;;;;;4998516;28;20273;-81
2022/07/15 10:56:30;;;;;;;0.90;0.30;;;34.40;27.90;;;;;;5009506;28;20252;-77
2022/07/15 10:59:09;;;;;;;0.93;0.20;;;34.70;31.30;;;;;;5006510;28;20032;-77
2022/07/15 11:01:37;;;;;;;0.20;0.20;;;34.60;28.50;;;;;;5010002;28;20057;-77
2022/07/15 11:04:22;;;;;;;0.82;0.20;;;34.60;30.20;;;;;;4987322;28;20105;-77
2022/07/15 11:07:10;;;;;;;1.02;0.20;;;33.70;29.50;;;;;;4994012;28;20045;-77
2022/07/15 11:09:47;;;;;;;3.13;0.30;;;34.00;30.60;;;;;;5002504;28;20029;-77
2022/07/15 11:12:36;;;;;;;0.35;0.32;;;34.60;28.20;;;;;;5017207;28;20620;-80
2022/07/15 11:15:11;;;;;;;0.73;0.52;;;34.40;27.40;;;;;;4992321;28;20140;-78
2022/07/15 11:17:40;;;;;;;1.85;0.40;;;33.90;28.70;;;;;;4986483;28;20495;-77
2022/07/15 11:20:11;;;;;;;1.60;0.30;;;34.00;27.10;;;;;;5002597;28;20036;-77
2022/07/15 11:22:41;;;;;;;0.32;0.13;;;33.80;28.00;;;;;;4995633;28;20029;-77
2022/07/15 11:25:16;;;;;;;1.25;0.30;;;33.70;27.00;;;;;;5003515;28;20029;-77
2022/07/15 11:27:41;;;;;;;1.17;0.20;;;33.60;28.30;;;;;;4996229;28;20049;-77
2022/07/15 11:30:07;;;;;;;3.22;0.40;;;33.50;28.60;;;;;;4983613;28;20436;-77
2022/07/15 11:32:34;;;;;;;1.48;0.28;;;34.20;27.70;;;;;;5002356;28;20128;-77
2022/07/15 11:35:02;;;;;;;1.40;0.47;;;34.00;29.40;;;;;;4997037;28;20069;-76
2022/07/15 11:37:36;;;;;;;0.38;0.15;;;33.60;29.10;;;;;;5000869;28;20318;-77
2022/07/15 11:45:46;;;;;;;0.32;0.30;;;31.80;31.20;;;;;;5003052;28;20440;-76
2022/07/15 11:48:13;;;;;;;0.30;0.30;;;31.40;30.10;;;;;;5005726;28;20044;-76
2022/07/15 11:50:52;;;;;;;1.13;0.20;;;30.80;34.20;;;;;;5002224;28;20038;-76
2022/07/15 11:53:19;;;;;;;0.20;0.20;;;30.20;31.90;;;;;;5004035;28;20033;-76
2022/07/15 11:55:50;;;;;;;2.50;0.35;;;30.10;35.30;;;;;;5001445;28;20537;-76
2022/07/15 11:58:28;;;;;;;1.05;0.40;;;29.80;32.00;;;;;;4999484;28;20034;-80
2022/07/15 12:00:54;;;;;;;1.45;0.22;;;29.60;37.50;;;;;;5000613;28;20197;-77
2022/07/15 12:03:20;;;;;;;0.30;0.30;;;29.70;34.80;;;;;;5002058;28;20030;-76
2022/07/15 12:06:03;;;;;;;0.90;0.30;;;29.70;37.30;;;;;;5006060;28;20039;-77
2022/07/15 12:08:38;;;;;;;1.73;0.40;;;29.70;31.20;;;;;;5004605;28;20560;-76
2022/07/15 12:11:10;;;;;;;0.50;0.30;;;29.50;36.60;;;;;;5001019;28;20282;-76
2022/07/15 12:13:44;;;;;;;0.80;0.30;;;29.70;38.00;;;;;;5004147;28;20361;-77
2022/07/15 12:16:11;;;;;;;0.40;0.28;;;29.90;37.70;;;;;;5000995;28;20045;-76
2022/07/15 12:18:37;;;;;;;0.77;0.30;;;30.00;36.10;;;;;;5007317;28;20106;-78
2022/07/15 12:21:03;;;;;;;2.58;0.40;;;29.70;32.50;;;;;;5007106;28;20051;-77
2022/07/15 12:23:28;;;;;;;0.40;0.40;;;29.40;35.40;;;;;;4999614;28;22231;-76
2022/07/15 12:26:06;;;;;;;1.85;0.50;;;29.40;31.20;;;;;;5003334;28;20196;-77
2022/07/15 12:28:32;;;;;;;2.00;0.55;;;29.00;32.10;;;;;;4996449;28;20453;-76
2022/07/15 12:30:59;;;;;;;0.82;0.30;;;29.00;32.30;;;;;;4995437;28;20045;-77
2022/07/15 12:33:25;;;;;;;1.10;0.40;;;28.90;37.50;;;;;;5002412;28;21253;-77
2022/07/15 12:36:16;;;;;;;0.52;0.40;;;28.90;33.30;;;;;;5003391;28;20037;-76
2022/07/15 12:38:42;;;;;;;0.20;0.20;;;28.50;33.50;;;;;;4999516;28;20107;-77
2022/07/15 12:41:23;;;;;;;2.63;0.40;;;28.50;32.80;;;;;;4999187;28;20182;-78
2022/07/15 12:43:55;;;;;;;1.38;0.30;;;28.70;37.20;;;;;;5004042;28;20143;-76
2022/07/15 12:46:41;;;;;;;0.73;0.43;;;28.90;37.80;;;;;;5007788;28;20564;-77
2022/07/15 12:49:07;;;;;;;2.85;0.68;;;29.10;38.40;;;;;;5007723;28;20389;-77
2022/07/15 12:51:34;;;;;;;2.55;0.82;;;28.90;40.60;;;;;;5004593;28;20026;-76
2022/07/15 12:54:07;;;;;;;2.95;0.50;;;28.90;45.70;;;;;;5008597;28;20124;-77
2022/07/15 12:56:52;;;;;;;2.70;0.63;;;28.90;42.40;;;;;;5013284;28;20049;-78
2022/07/15 12:59:17;;;;;;;1.23;0.50;;;28.80;44.10;;;;;;5008337;28;20079;-77
2022/07/15 13:02:00;;;;;;;0.43;0.40;;;28.50;35.80;;;;;;5006647;28;20143;-77
2022/07/15 13:04:25;;;;;;;1.92;0.43;;;28.60;41.20;;;;;;5003594;28;20385;-77
2022/07/15 13:06:51;;;;;;;0.55;0.55;;;28.70;39.50;;;;;;5003840;28;20187;-77
2022/07/15 13:09:17;;;;;;;1.15;0.55;;;28.70;41.70;;;;;;5010196;28;20038;-78